sensor_id;sensor_type;location;lat;lon;timestamp;pressure;altitude;pressure_sealevel;temperature;humidity
6423;BME280;3244;42.708;23.288;2023-07-30T06:14:23;95023.53;;;36.11;nan
6423;BME280;3244;42.708;23.288;2023-07-30T06:16:49;95020.84;;;39.01;nan
6423;BME280;3244;42.708;23.288;2023-07-30T06:19:16;95004.19;;;41.63;nan
6423;BME280;3244;42.708;23.288;2023-07-30T06:21:43;95010.41;;;43.84;nan
6423;BME280;3244;42.708;23.288;2023-07-30T06:24:09;94992.31;;;45.55;nan
6423;BME280;3244;42.708;23.288;2023-07-30T06:26:36;94986.13;;;47.23;nan
6423;BME280;3244;42.708;23.288;2023-07-30T06:29:03;94984.69;;;47.88;nan
6423;BME280;3244;42.708;23.288;2023-07-30T06:31:31;94986.47;;;48.59;nan
6423;BME280;3244;42.708;23.288;2023-07-30T06:33:58;94971.19;;;49.25;nan
6423;BME280;3244;42.708;23.288;2023-07-30T06:36:24;94972.56;;;49.82;nan
6423;BME280;3244;42.708;23.288;2023-07-30T06:38:51;94964.75;;;50.08;nan
6423;BME280;3244;42.708;23.288;2023-07-30T06:41:18;94959.06;;;50.73;nan
6423;BME280;3244;42.708;23.288;2023-07-30T06:43:45;94981.47;;;51.63;nan
6423;BME280;3244;42.708;23.288;2023-07-30T06:46:11;94963.97;;;51.69;nan
6423;BME280;3244;42.708;23.288;2023-07-30T06:48:39;94958.59;;;51.86;nan
6423;BME280;3244;42.708;23.288;2023-07-30T06:51:06;94951.34;;;51.64;nan
6423;BME280;3244;42.708;23.288;2023-07-30T06:53:33;94957.16;;;51.89;nan
6423;BME280;3244;42.708;23.288;2023-07-30T06:56:00;94946.66;;;52.70;nan
6423;BME280;3244;42.708;23.288;2023-07-30T06:58:26;94947.69;;;52.17;nan
6423;BME280;3244;42.708;23.288;2023-07-30T07:00:53;94948.84;;;51.15;nan
6423;BME280;3244;42.708;23.288;2023-07-30T07:03:20;94951.53;;;51.15;nan
6423;BME280;3244;42.708;23.288;2023-07-30T07:05:53;94946.94;;;51.15;nan
6423;BME280;3244;42.708;23.288;2023-07-30T07:08:20;94933.28;;;50.40;nan
6423;BME280;3244;42.708;23.288;2023-07-30T07:10:47;94946.28;;;49.28;nan
6423;BME280;3244;42.708;23.288;2023-07-30T07:13:14;94940.03;;;48.44;nan
6423;BME280;3244;42.708;23.288;2023-07-30T07:15:41;94926.31;;;48.78;nan
6423;BME280;3244;42.708;23.288;2023-07-30T07:18:08;94931.31;;;50.04;nan
6423;BME280;3244;42.708;23.288;2023-07-30T07:20:35;94934.03;;;50.54;nan
6423;BME280;3244;42.708;23.288;2023-07-30T07:23:03;94918.88;;;51.11;nan
6423;BME280;3244;42.708;23.288;2023-07-30T07:25:30;94928.09;;;51.63;nan
6423;BME280;3244;42.708;23.288;2023-07-30T07:27:57;94939.53;;;51.60;nan
6423;BME280;3244;42.708;23.288;2023-07-30T07:30:23;94930.66;;;51.68;nan
6423;BME280;3244;42.708;23.288;2023-07-30T07:32:51;94920.69;;;50.35;nan
6423;BME280;3244;42.708;23.288;2023-07-30T07:35:19;94913.91;;;50.10;nan
6423;BME280;3244;42.708;23.288;2023-07-30T07:37:46;94906.63;;;51.14;nan
6423;BME280;3244;42.708;23.288;2023-07-30T07:40:14;94910.09;;;51.76;nan
6423;BME280;3244;42.708;23.288;2023-07-30T07:42:41;94904.97;;;51.66;nan
6423;BME280;3244;42.708;23.288;2023-07-30T07:45:08;94911.63;;;51.60;nan
6423;BME280;3244;42.708;23.288;2023-07-30T07:47:35;94907.56;;;51.71;nan
6423;BME280;3244;42.708;23.288;2023-07-30T07:50:02;94909.34;;;51.93;nan
6423;BME280;3244;42.708;23.288;2023-07-30T07:52:29;94904.47;;;51.02;nan
6423;BME280;3244;42.708;23.288;2023-07-30T07:54:55;94903.06;;;50.82;nan
6423;BME280;3244;42.708;23.288;2023-07-30T07:57:24;94908.34;;;51.72;nan
6423;BME280;3244;42.708;23.288;2023-07-30T07:59:50;94902.97;;;51.89;nan
6423;BME280;3244;42.708;23.288;2023-07-30T08:02:17;94898.78;;;51.83;nan
6423;BME280;3244;42.708;23.288;2023-07-30T08:04:44;94893.91;;;53.06;nan
6423;BME280;3244;42.708;23.288;2023-07-30T08:07:10;94895.69;;;52.15;nan
6423;BME280;3244;42.708;23.288;2023-07-30T08:09:37;94893.63;;;50.35;nan
6423;BME280;3244;42.708;23.288;2023-07-30T08:12:05;94893.94;;;49.70;nan
6423;BME280;3244;42.708;23.288;2023-07-30T08:14:33;94884.22;;;50.68;nan
6423;BME280;3244;42.708;23.288;2023-07-30T08:17:00;94887.66;;;51.14;nan
6423;BME280;3244;42.708;23.288;2023-07-30T08:19:26;94882.69;;;51.69;nan
6423;BME280;3244;42.708;23.288;2023-07-30T08:21:53;94883.56;;;52.73;nan
6423;BME280;3244;42.708;23.288;2023-07-30T08:24:21;94890.31;;;53.98;nan
6423;BME280;3244;42.708;23.288;2023-07-30T08:26:48;94888.66;;;52.83;nan
6423;BME280;3244;42.708;23.288;2023-07-30T08:29:15;94889.94;;;52.08;nan
6423;BME280;3244;42.708;23.288;2023-07-30T08:31:43;94884.03;;;51.18;nan
6423;BME280;3244;42.708;23.288;2023-07-30T08:34:10;94877.09;;;50.73;nan
6423;BME280;3244;42.708;23.288;2023-07-30T08:36:36;94874.53;;;50.54;nan
6423;BME280;3244;42.708;23.288;2023-07-30T08:39:03;94871.53;;;50.19;nan
6423;BME280;3244;42.708;23.288;2023-07-30T08:41:30;94859.78;;;50.37;nan
6423;BME280;3244;42.708;23.288;2023-07-30T08:43:57;94861.84;;;51.08;nan
6423;BME280;3244;42.708;23.288;2023-07-30T08:46:24;94858.38;;;51.47;nan
6423;BME280;3244;42.708;23.288;2023-07-30T08:48:52;94861.22;;;52.07;nan
6423;BME280;3244;42.708;23.288;2023-07-30T08:51:19;94859.00;;;52.26;nan
6423;BME280;3244;42.708;23.288;2023-07-30T08:53:48;94854.19;;;52.75;nan
6423;BME280;3244;42.708;23.288;2023-07-30T08:56:15;94853.06;;;53.40;nan
6423;BME280;3244;42.708;23.288;2023-07-30T08:58:42;94858.53;;;52.33;nan
6423;BME280;3244;42.708;23.288;2023-07-30T09:01:11;94852.28;;;51.98;nan
6423;BME280;3244;42.708;23.288;2023-07-30T09:03:39;94850.97;;;51.87;nan
6423;BME280;3244;42.708;23.288;2023-07-30T09:06:08;94842.84;;;51.87;nan
6423;BME280;3244;42.708;23.288;2023-07-30T09:08:34;94846.03;;;51.80;nan
6423;BME280;3244;42.708;23.288;2023-07-30T09:11:10;94844.59;;;51.83;nan
6423;BME280;3244;42.708;23.288;2023-07-30T09:13:38;94851.47;;;52.23;nan
6423;BME280;3244;42.708;23.288;2023-07-30T09:16:09;94851.09;;;50.49;nan
6423;BME280;3244;42.708;23.288;2023-07-30T09:18:40;94854.34;;;48.03;nan
6423;BME280;3244;42.708;23.288;2023-07-30T09:21:10;94835.09;;;46.37;nan
6423;BME280;3244;42.708;23.288;2023-07-30T09:23:40;94849.06;;;45.90;nan
6423;BME280;3244;42.708;23.288;2023-07-30T09:26:07;94834.75;;;46.05;nan
6423;BME280;3244;42.708;23.288;2023-07-30T09:28:34;94838.91;;;46.26;nan
6423;BME280;3244;42.708;23.288;2023-07-30T09:31:01;94845.31;;;45.86;nan
6423;BME280;3244;42.708;23.288;2023-07-30T09:33:28;94829.25;;;44.96;nan
6423;BME280;3244;42.708;23.288;2023-07-30T09:35:55;94830.91;;;44.47;nan
6423;BME280;3244;42.708;23.288;2023-07-30T09:38:23;94822.56;;;44.02;nan
6423;BME280;3244;42.708;23.288;2023-07-30T09:40:51;94826.38;;;43.49;nan
6423;BME280;3244;42.708;23.288;2023-07-30T09:43:18;94818.94;;;42.67;nan
6423;BME280;3244;42.708;23.288;2023-07-30T09:45:45;94822.19;;;41.61;nan
6423;BME280;3244;42.708;23.288;2023-07-30T09:48:13;94821.69;;;39.58;nan
6423;BME280;3244;42.708;23.288;2023-07-30T09:50:41;94823.50;;;38.06;nan
6423;BME280;3244;42.708;23.288;2023-07-30T09:53:10;94815.53;;;37.09;nan
6423;BME280;3244;42.708;23.288;2023-07-30T09:55:39;94826.34;;;36.40;nan
6423;BME280;3244;42.708;23.288;2023-07-30T09:58:05;94813.59;;;35.99;nan
6423;BME280;3244;42.708;23.288;2023-07-30T10:03:02;94822.47;;;35.35;nan
6423;BME280;3244;42.708;23.288;2023-07-30T10:08:01;94817.09;;;34.90;nan
6423;BME280;3244;42.708;23.288;2023-07-30T10:10:29;94813.03;;;34.68;nan
6423;BME280;3244;42.708;23.288;2023-07-30T10:15:26;94801.91;;;34.46;nan
6423;BME280;3244;42.708;23.288;2023-07-30T10:17:53;94806.78;;;34.42;nan
6423;BME280;3244;42.708;23.288;2023-07-30T10:20:23;94796.22;;;34.16;nan
6423;BME280;3244;42.708;23.288;2023-07-30T10:22:52;94794.16;;;33.78;nan
6423;BME280;3244;42.708;23.288;2023-07-30T10:25:21;94761.25;;;33.55;nan
6423;BME280;3244;42.708;23.288;2023-07-30T10:30:18;94787.06;;;33.25;nan
6423;BME280;3244;42.708;23.288;2023-07-30T10:33:09;94785.53;;;33.37;nan
6423;BME280;3244;42.708;23.288;2023-07-30T12:12:16;94642.56;;;32.47;nan
6423;BME280;3244;42.708;23.288;2023-07-30T13:08:39;94568.38;;;32.18;nan
6423;BME280;3244;42.708;23.288;2023-07-30T18:26:47;94487.38;;;27.69;nan
6423;BME280;3244;42.708;23.288;2023-07-30T22:33:56;94782.78;;;23.37;nan
